sensor_id;sensor_type;location;lat;lon;timestamp;pressure;altitude;pressure_sealevel;temperature;humidity
50368;BME280;36281;34.132;-118.018;2023-08-06T00:00:59;99537.91;;;34.25;32.39
50368;BME280;36281;34.132;-118.018;2023-08-06T00:03:29;99543.00;;;34.23;32.17
50368;BME280;36281;34.132;-118.018;2023-08-06T00:05:58;99542.56;;;34.17;32.21
50368;BME280;36281;34.132;-118.018;2023-08-06T00:08:27;99537.75;;;34.11;32.11
50368;BME280;36281;34.132;-118.018;2023-08-06T00:10:56;99540.56;;;34.14;32.85
50368;BME280;36281;34.132;-118.018;2023-08-06T00:13:25;99535.44;;;34.13;32.48
50368;BME280;36281;34.132;-118.018;2023-08-06T00:15:54;99536.56;;;34.08;32.50
50368;BME280;36281;34.132;-118.018;2023-08-06T00:18:25;99529.06;;;34.02;32.75
50368;BME280;36281;34.132;-118.018;2023-08-06T00:20:54;99520.00;;;34.01;32.99
50368;BME280;36281;34.132;-118.018;2023-08-06T00:23:23;99518.44;;;34.00;33.43
50368;BME280;36281;34.132;-118.018;2023-08-06T00:25:52;99517.69;;;34.03;33.31
50368;BME280;36281;34.132;-118.018;2023-08-06T00:28:21;99520.44;;;34.03;33.34
50368;BME280;36281;34.132;-118.018;2023-08-06T00:30:53;99517.97;;;33.94;33.34
50368;BME280;36281;34.132;-118.018;2023-08-06T00:33:24;99515.25;;;33.94;33.65
50368;BME280;36281;34.132;-118.018;2023-08-06T00:35:53;99515.56;;;33.89;33.06
50368;BME280;36281;34.132;-118.018;2023-08-06T00:38:22;99506.13;;;33.90;33.41
50368;BME280;36281;34.132;-118.018;2023-08-06T00:40:51;99499.78;;;33.83;33.37
50368;BME280;36281;34.132;-118.018;2023-08-06T00:43:21;99507.94;;;33.72;33.49
50368;BME280;36281;34.132;-118.018;2023-08-06T00:45:50;99501.88;;;33.59;34.14
50368;BME280;36281;34.132;-118.018;2023-08-06T00:48:20;99501.66;;;33.41;34.12
50368;BME280;36281;34.132;-118.018;2023-08-06T00:50:51;99503.16;;;33.35;34.14
50368;BME280;36281;34.132;-118.018;2023-08-06T00:53:20;99507.31;;;33.22;34.36
50368;BME280;36281;34.132;-118.018;2023-08-06T00:55:49;99507.63;;;33.17;34.49
50368;BME280;36281;34.132;-118.018;2023-08-06T00:58:19;99506.81;;;33.16;34.45
50368;BME280;36281;34.132;-118.018;2023-08-06T01:00:48;99499.25;;;33.06;34.30
50368;BME280;36281;34.132;-118.018;2023-08-06T01:03:17;99502.22;;;32.94;34.44
50368;BME280;36281;34.132;-118.018;2023-08-06T01:05:46;99500.16;;;32.87;34.70
50368;BME280;36281;34.132;-118.018;2023-08-06T01:08:30;99501.13;;;32.76;35.28
50368;BME280;36281;34.132;-118.018;2023-08-06T01:11:11;99506.09;;;32.66;35.68
50368;BME280;36281;34.132;-118.018;2023-08-06T01:13:45;99513.00;;;32.57;35.22
50368;BME280;36281;34.132;-118.018;2023-08-06T01:16:16;99516.66;;;32.41;34.95
50368;BME280;36281;34.132;-118.018;2023-08-06T01:18:48;99516.53;;;32.34;35.15
50368;BME280;36281;34.132;-118.018;2023-08-06T01:21:19;99524.19;;;32.25;35.52
50368;BME280;36281;34.132;-118.018;2023-08-06T01:23:48;99532.25;;;32.14;35.73
50368;BME280;36281;34.132;-118.018;2023-08-06T01:26:24;99534.72;;;32.00;36.12
50368;BME280;36281;34.132;-118.018;2023-08-06T01:29:03;99539.72;;;31.95;36.52
50368;BME280;36281;34.132;-118.018;2023-08-06T01:31:37;99539.94;;;31.86;37.02
50368;BME280;36281;34.132;-118.018;2023-08-06T01:34:11;99477.84;;;31.32;37.30
50368;BME280;36281;34.132;-118.018;2023-08-06T01:36:44;99556.56;;;31.58;37.73
50368;BME280;36281;34.132;-118.018;2023-08-06T01:39:14;99558.28;;;31.47;38.23
50368;BME280;36281;34.132;-118.018;2023-08-06T01:41:43;99567.94;;;31.25;38.44
50368;BME280;36281;34.132;-118.018;2023-08-06T01:44:11;99560.22;;;31.11;39.13
50368;BME280;36281;34.132;-118.018;2023-08-06T01:46:40;99566.94;;;30.98;39.40
50368;BME280;36281;34.132;-118.018;2023-08-06T01:49:09;99572.53;;;30.85;38.60
50368;BME280;36281;34.132;-118.018;2023-08-06T01:51:38;99569.78;;;30.70;38.48
50368;BME280;36281;34.132;-118.018;2023-08-06T01:54:09;99582.91;;;30.64;39.16
50368;BME280;36281;34.132;-118.018;2023-08-06T01:56:38;99585.19;;;30.62;39.76
50368;BME280;36281;34.132;-118.018;2023-08-06T01:59:07;99587.03;;;30.58;40.53
50368;BME280;36281;34.132;-118.018;2023-08-06T02:01:36;99588.47;;;30.52;40.72
50368;BME280;36281;34.132;-118.018;2023-08-06T02:04:05;99594.34;;;30.38;41.02
50368;BME280;36281;34.132;-118.018;2023-08-06T02:06:34;99600.31;;;30.28;41.53
50368;BME280;36281;34.132;-118.018;2023-08-06T02:09:03;99592.06;;;30.24;41.64
50368;BME280;36281;34.132;-118.018;2023-08-06T02:11:34;99600.50;;;30.19;41.74
50368;BME280;36281;34.132;-118.018;2023-08-06T02:14:03;99594.69;;;30.08;41.84
50368;BME280;36281;34.132;-118.018;2023-08-06T02:16:32;99595.66;;;30.00;41.70
50368;BME280;36281;34.132;-118.018;2023-08-06T02:19:01;99597.75;;;29.91;42.22
50368;BME280;36281;34.132;-118.018;2023-08-06T02:21:30;99604.38;;;29.78;42.35
50368;BME280;36281;34.132;-118.018;2023-08-06T02:23:59;99597.94;;;29.70;42.18
50368;BME280;36281;34.132;-118.018;2023-08-06T02:26:28;99597.72;;;29.63;42.21
50368;BME280;36281;34.132;-118.018;2023-08-06T02:28:59;99593.75;;;29.48;42.78
50368;BME280;36281;34.132;-118.018;2023-08-06T02:31:28;99596.63;;;29.40;43.67
50368;BME280;36281;34.132;-118.018;2023-08-06T02:33:57;99593.47;;;29.25;44.22
50368;BME280;36281;34.132;-118.018;2023-08-06T02:36:27;99603.81;;;29.20;44.51
50368;BME280;36281;34.132;-118.018;2023-08-06T02:38:57;99603.47;;;29.09;44.77
50368;BME280;36281;34.132;-118.018;2023-08-06T02:41:26;99602.91;;;29.03;44.80
50368;BME280;36281;34.132;-118.018;2023-08-06T02:43:55;99598.66;;;28.94;45.21
50368;BME280;36281;34.132;-118.018;2023-08-06T02:46:26;99604.34;;;28.89;45.40
50368;BME280;36281;34.132;-118.018;2023-08-06T02:48:55;99606.84;;;28.81;46.42
50368;BME280;36281;34.132;-118.018;2023-08-06T02:51:24;99617.06;;;28.72;46.78
50368;BME280;36281;34.132;-118.018;2023-08-06T02:53:53;99612.50;;;28.64;47.65
50368;BME280;36281;34.132;-118.018;2023-08-06T02:56:22;99616.13;;;28.56;47.25
50368;BME280;36281;34.132;-118.018;2023-08-06T02:58:51;99615.44;;;28.47;47.42
50368;BME280;36281;34.132;-118.018;2023-08-06T03:01:20;99619.72;;;28.36;47.59
50368;BME280;36281;34.132;-118.018;2023-08-06T03:03:53;99620.91;;;28.26;47.76
50368;BME280;36281;34.132;-118.018;2023-08-06T03:06:22;99623.03;;;28.20;49.31
50368;BME280;36281;34.132;-118.018;2023-08-06T03:08:51;99628.44;;;28.08;49.67
50368;BME280;36281;34.132;-118.018;2023-08-06T03:11:20;99625.91;;;28.03;50.43
50368;BME280;36281;34.132;-118.018;2023-08-06T03:13:49;99631.13;;;27.96;50.71
50368;BME280;36281;34.132;-118.018;2023-08-06T03:16:18;99635.81;;;27.87;50.34
50368;BME280;36281;34.132;-118.018;2023-08-06T03:18:47;99639.09;;;27.80;50.64
50368;BME280;36281;34.132;-118.018;2023-08-06T03:21:18;99648.09;;;27.72;50.90
50368;BME280;36281;34.132;-118.018;2023-08-06T03:23:47;99651.78;;;27.67;51.42
50368;BME280;36281;34.132;-118.018;2023-08-06T03:26:17;99650.19;;;27.66;51.37
50368;BME280;36281;34.132;-118.018;2023-08-06T03:28:46;99655.34;;;27.59;52.01
50368;BME280;36281;34.132;-118.018;2023-08-06T03:31:15;99663.69;;;27.54;52.83
50368;BME280;36281;34.132;-118.018;2023-08-06T03:33:44;99666.81;;;27.44;52.46
50368;BME280;36281;34.132;-118.018;2023-08-06T03:36:13;99666.88;;;27.35;53.08
50368;BME280;36281;34.132;-118.018;2023-08-06T03:38:44;99671.88;;;27.24;53.23
50368;BME280;36281;34.132;-118.018;2023-08-06T03:41:13;99676.06;;;27.13;53.28
50368;BME280;36281;34.132;-118.018;2023-08-06T03:43:42;99678.97;;;27.08;52.43
50368;BME280;36281;34.132;-118.018;2023-08-06T03:46:11;99674.81;;;27.02;52.11
50368;BME280;36281;34.132;-118.018;2023-08-06T03:48:41;99674.66;;;26.98;52.97
50368;BME280;36281;34.132;-118.018;2023-08-06T03:51:10;99671.97;;;26.90;52.73
50368;BME280;36281;34.132;-118.018;2023-08-06T03:53:39;99685.56;;;26.90;53.21
50368;BME280;36281;34.132;-118.018;2023-08-06T03:56:09;99689.13;;;26.82;53.45
50368;BME280;36281;34.132;-118.018;2023-08-06T03:58:38;99693.78;;;26.72;52.63
50368;BME280;36281;34.132;-118.018;2023-08-06T04:01:07;99681.00;;;26.64;52.31
50368;BME280;36281;34.132;-118.018;2023-08-06T04:03:37;99687.09;;;26.61;54.39
50368;BME280;36281;34.132;-118.018;2023-08-06T04:06:07;99675.13;;;26.45;54.81
50368;BME280;36281;34.132;-118.018;2023-08-06T04:08:36;99686.91;;;26.40;55.40
50368;BME280;36281;34.132;-118.018;2023-08-06T04:11:05;99681.19;;;26.33;55.53
50368;BME280;36281;34.132;-118.018;2023-08-06T04:13:35;99685.19;;;26.27;55.87
50368;BME280;36281;34.132;-118.018;2023-08-06T04:16:05;99688.38;;;26.20;55.93
50368;BME280;36281;34.132;-118.018;2023-08-06T04:18:34;99692.53;;;26.18;55.80
50368;BME280;36281;34.132;-118.018;2023-08-06T04:21:03;99693.03;;;26.11;56.28
50368;BME280;36281;34.132;-118.018;2023-08-06T04:23:32;99680.25;;;26.03;56.99
50368;BME280;36281;34.132;-118.018;2023-08-06T04:26:01;99687.91;;;26.01;57.36
50368;BME280;36281;34.132;-118.018;2023-08-06T04:28:30;99685.66;;;25.94;57.67
50368;BME280;36281;34.132;-118.018;2023-08-06T04:31:01;99688.84;;;25.88;57.89
50368;BME280;36281;34.132;-118.018;2023-08-06T04:33:30;99687.09;;;25.83;58.10
50368;BME280;36281;34.132;-118.018;2023-08-06T04:35:59;99674.75;;;25.68;58.77
50368;BME280;36281;34.132;-118.018;2023-08-06T04:38:28;99690.28;;;25.76;58.90
50368;BME280;36281;34.132;-118.018;2023-08-06T04:40:58;99687.69;;;25.71;58.91
50368;BME280;36281;34.132;-118.018;2023-08-06T04:43:27;99685.13;;;25.66;59.29
50368;BME280;36281;34.132;-118.018;2023-08-06T04:45:56;99685.56;;;25.60;59.57
50368;BME280;36281;34.132;-118.018;2023-08-06T04:48:27;99686.03;;;25.53;60.18
50368;BME280;36281;34.132;-118.018;2023-08-06T04:50:56;99686.19;;;25.48;60.45
50368;BME280;36281;34.132;-118.018;2023-08-06T04:53:25;99689.38;;;25.41;61.08
50368;BME280;36281;34.132;-118.018;2023-08-06T04:55:54;99682.97;;;25.37;60.98
50368;BME280;36281;34.132;-118.018;2023-08-06T04:58:23;99685.19;;;25.35;61.27
50368;BME280;36281;34.132;-118.018;2023-08-06T05:00:53;99681.22;;;25.33;61.21
50368;BME280;36281;34.132;-118.018;2023-08-06T05:03:22;99683.28;;;25.27;60.98
50368;BME280;36281;34.132;-118.018;2023-08-06T05:05:53;99691.03;;;25.20;61.64
50368;BME280;36281;34.132;-118.018;2023-08-06T05:08:22;99688.19;;;25.16;62.24
50368;BME280;36281;34.132;-118.018;2023-08-06T05:10:52;99698.03;;;25.12;62.32
50368;BME280;36281;34.132;-118.018;2023-08-06T05:13:21;99691.63;;;25.08;62.22
50368;BME280;36281;34.132;-118.018;2023-08-06T05:15:50;99699.22;;;25.06;62.20
50368;BME280;36281;34.132;-118.018;2023-08-06T05:18:19;99706.88;;;25.04;62.19
50368;BME280;36281;34.132;-118.018;2023-08-06T05:20:48;99702.06;;;25.01;62.81
50368;BME280;36281;34.132;-118.018;2023-08-06T05:23:19;99696.78;;;24.96;63.20
50368;BME280;36281;34.132;-118.018;2023-08-06T05:25:48;99704.75;;;24.92;63.16
50368;BME280;36281;34.132;-118.018;2023-08-06T05:28:17;99708.41;;;24.88;63.57
50368;BME280;36281;34.132;-118.018;2023-08-06T05:30:46;99705.31;;;24.81;63.88
50368;BME280;36281;34.132;-118.018;2023-08-06T05:33:15;99710.38;;;24.73;64.01
50368;BME280;36281;34.132;-118.018;2023-08-06T05:35:44;99712.91;;;24.70;63.79
50368;BME280;36281;34.132;-118.018;2023-08-06T05:38:13;99707.28;;;24.66;64.71
50368;BME280;36281;34.132;-118.018;2023-08-06T05:40:43;99712.69;;;24.58;65.01
50368;BME280;36281;34.132;-118.018;2023-08-06T05:43:13;99708.66;;;24.55;65.52
50368;BME280;36281;34.132;-118.018;2023-08-06T05:45:45;99710.09;;;24.53;65.90
50368;BME280;36281;34.132;-118.018;2023-08-06T05:48:14;99713.41;;;24.49;65.77
50368;BME280;36281;34.132;-118.018;2023-08-06T05:50:44;99711.25;;;24.38;66.12
50368;BME280;36281;34.132;-118.018;2023-08-06T05:53:13;99707.22;;;24.35;66.21
50368;BME280;36281;34.132;-118.018;2023-08-06T05:55:44;99710.25;;;24.34;66.50
50368;BME280;36281;34.132;-118.018;2023-08-06T05:58:13;99718.47;;;24.29;66.60
50368;BME280;36281;34.132;-118.018;2023-08-06T06:00:42;99719.88;;;24.26;67.07
50368;BME280;36281;34.132;-118.018;2023-08-06T06:03:11;99724.50;;;24.25;67.10
50368;BME280;36281;34.132;-118.018;2023-08-06T06:05:41;99727.03;;;24.22;67.02
50368;BME280;36281;34.132;-118.018;2023-08-06T06:08:10;99726.03;;;24.18;67.78
50368;BME280;36281;34.132;-118.018;2023-08-06T06:10:38;99722.34;;;24.14;67.75
50368;BME280;36281;34.132;-118.018;2023-08-06T06:13:09;99722.13;;;24.10;67.94
50368;BME280;36281;34.132;-118.018;2023-08-06T06:15:38;99721.13;;;24.06;68.09
50368;BME280;36281;34.132;-118.018;2023-08-06T06:18:07;99728.41;;;23.97;68.37
50368;BME280;36281;34.132;-118.018;2023-08-06T06:20:36;99720.41;;;23.92;69.03
50368;BME280;36281;34.132;-118.018;2023-08-06T06:23:05;99720.78;;;23.85;69.52
50368;BME280;36281;34.132;-118.018;2023-08-06T06:25:34;99708.28;;;23.76;69.80
50368;BME280;36281;34.132;-118.018;2023-08-06T06:28:03;99720.78;;;23.71;69.80
50368;BME280;36281;34.132;-118.018;2023-08-06T06:30:34;99717.78;;;23.59;70.51
50368;BME280;36281;34.132;-118.018;2023-08-06T06:33:03;99727.69;;;23.50;70.97
50368;BME280;36281;34.132;-118.018;2023-08-06T06:35:32;99717.56;;;23.42;71.60
50368;BME280;36281;34.132;-118.018;2023-08-06T06:38:01;99713.91;;;23.38;71.24
50368;BME280;36281;34.132;-118.018;2023-08-06T06:40:31;99719.59;;;23.36;71.59
50368;BME280;36281;34.132;-118.018;2023-08-06T06:43:01;99717.78;;;23.32;71.97
50368;BME280;36281;34.132;-118.018;2023-08-06T06:45:34;99712.69;;;23.30;72.03
50368;BME280;36281;34.132;-118.018;2023-08-06T06:48:03;99723.91;;;23.24;72.20
50368;BME280;36281;34.132;-118.018;2023-08-06T06:50:32;99727.78;;;23.17;72.41
50368;BME280;36281;34.132;-118.018;2023-08-06T06:53:01;99726.47;;;23.15;72.69
50368;BME280;36281;34.132;-118.018;2023-08-06T06:55:30;99727.88;;;23.12;72.57
50368;BME280;36281;34.132;-118.018;2023-08-06T06:57:59;99728.16;;;23.11;72.95
50368;BME280;36281;34.132;-118.018;2023-08-06T07:00:28;99734.97;;;23.08;72.79
50368;BME280;36281;34.132;-118.018;2023-08-06T07:02:59;99742.56;;;23.06;73.13
50368;BME280;36281;34.132;-118.018;2023-08-06T07:05:28;99742.28;;;23.08;73.08
50368;BME280;36281;34.132;-118.018;2023-08-06T07:07:57;99737.16;;;23.06;73.34
50368;BME280;36281;34.132;-118.018;2023-08-06T07:10:26;99746.06;;;23.07;73.11
50368;BME280;36281;34.132;-118.018;2023-08-06T07:12:55;99748.50;;;23.08;73.31
50368;BME280;36281;34.132;-118.018;2023-08-06T07:15:24;99752.88;;;23.04;73.15
50368;BME280;36281;34.132;-118.018;2023-08-06T07:17:53;99765.78;;;23.07;73.44
50368;BME280;36281;34.132;-118.018;2023-08-06T07:20:24;99752.97;;;22.99;73.57
50368;BME280;36281;34.132;-118.018;2023-08-06T07:22:53;99763.47;;;23.01;73.86
50368;BME280;36281;34.132;-118.018;2023-08-06T07:25:23;99726.88;;;22.76;73.97
50368;BME280;36281;34.132;-118.018;2023-08-06T07:27:52;99758.53;;;22.89;74.01
50368;BME280;36281;34.132;-118.018;2023-08-06T07:30:21;99762.91;;;22.85;74.05
50368;BME280;36281;34.132;-118.018;2023-08-06T07:32:50;99761.66;;;22.77;74.67
50368;BME280;36281;34.132;-118.018;2023-08-06T07:35:19;99754.16;;;22.74;74.73
50368;BME280;36281;34.132;-118.018;2023-08-06T07:37:49;99757.44;;;22.71;75.26
50368;BME280;36281;34.132;-118.018;2023-08-06T07:40:18;99758.53;;;22.70;75.17
50368;BME280;36281;34.132;-118.018;2023-08-06T07:42:47;99752.44;;;22.64;75.23
50368;BME280;36281;34.132;-118.018;2023-08-06T07:45:17;99755.22;;;22.59;75.42
50368;BME280;36281;34.132;-118.018;2023-08-06T07:47:46;99755.59;;;22.53;75.56
50368;BME280;36281;34.132;-118.018;2023-08-06T07:50:15;99749.75;;;22.45;76.09
50368;BME280;36281;34.132;-118.018;2023-08-06T07:52:44;99749.53;;;22.42;76.38
50368;BME280;36281;34.132;-118.018;2023-08-06T07:55:15;99743.47;;;22.31;76.63
50368;BME280;36281;34.132;-118.018;2023-08-06T07:57:44;99760.69;;;22.35;76.80
50368;BME280;36281;34.132;-118.018;2023-08-06T08:00:13;99758.88;;;22.31;77.29
50368;BME280;36281;34.132;-118.018;2023-08-06T08:02:42;99756.25;;;22.26;77.41
50368;BME280;36281;34.132;-118.018;2023-08-06T08:05:11;99752.50;;;22.22;77.81
50368;BME280;36281;34.132;-118.018;2023-08-06T08:07:40;99755.88;;;22.13;77.76
50368;BME280;36281;34.132;-118.018;2023-08-06T08:10:09;99755.34;;;22.11;78.22
50368;BME280;36281;34.132;-118.018;2023-08-06T08:12:40;99755.91;;;22.08;78.45
50368;BME280;36281;34.132;-118.018;2023-08-06T08:15:11;99766.47;;;22.05;78.89
50368;BME280;36281;34.132;-118.018;2023-08-06T08:17:40;99763.47;;;22.06;78.73
50368;BME280;36281;34.132;-118.018;2023-08-06T08:20:10;99758.97;;;22.02;78.50
50368;BME280;36281;34.132;-118.018;2023-08-06T08:22:39;99761.09;;;22.05;78.26
50368;BME280;36281;34.132;-118.018;2023-08-06T08:25:08;99765.16;;;22.02;78.56
50368;BME280;36281;34.132;-118.018;2023-08-06T08:27:39;99745.38;;;21.88;78.68
50368;BME280;36281;34.132;-118.018;2023-08-06T08:30:09;99767.66;;;21.99;78.49
50368;BME280;36281;34.132;-118.018;2023-08-06T08:32:38;99762.31;;;21.93;78.71
50368;BME280;36281;34.132;-118.018;2023-08-06T08:35:07;99762.03;;;21.95;78.59
50368;BME280;36281;34.132;-118.018;2023-08-06T08:37:37;99764.22;;;21.93;78.68
50368;BME280;36281;34.132;-118.018;2023-08-06T08:40:07;99751.88;;;21.87;78.70
50368;BME280;36281;34.132;-118.018;2023-08-06T08:42:37;99746.28;;;21.83;78.86
50368;BME280;36281;34.132;-118.018;2023-08-06T08:45:12;99756.81;;;21.80;79.24
50368;BME280;36281;34.132;-118.018;2023-08-06T08:47:42;99749.66;;;21.70;79.96
50368;BME280;36281;34.132;-118.018;2023-08-06T08:50:11;99749.41;;;21.66;80.33
50368;BME280;36281;34.132;-118.018;2023-08-06T08:52:41;99762.72;;;21.58;80.89
50368;BME280;36281;34.132;-118.018;2023-08-06T08:55:15;99768.47;;;21.51;81.46
50368;BME280;36281;34.132;-118.018;2023-08-06T08:57:44;99767.91;;;21.54;81.33
50368;BME280;36281;34.132;-118.018;2023-08-06T09:00:15;99767.66;;;21.51;80.79
50368;BME280;36281;34.132;-118.018;2023-08-06T09:02:46;99765.03;;;21.46;81.05
50368;BME280;36281;34.132;-118.018;2023-08-06T09:05:16;99775.56;;;21.42;81.41
50368;BME280;36281;34.132;-118.018;2023-08-06T09:07:49;99771.81;;;21.38;81.58
50368;BME280;36281;34.132;-118.018;2023-08-06T09:10:21;99764.34;;;21.35;81.72
50368;BME280;36281;34.132;-118.018;2023-08-06T09:12:52;99763.53;;;21.34;81.81
50368;BME280;36281;34.132;-118.018;2023-08-06T09:15:25;99767.31;;;21.33;81.52
50368;BME280;36281;34.132;-118.018;2023-08-06T09:17:55;99764.34;;;21.35;81.77
50368;BME280;36281;34.132;-118.018;2023-08-06T09:20:24;99768.13;;;21.34;81.79
50368;BME280;36281;34.132;-118.018;2023-08-06T09:22:53;99751.72;;;21.30;81.58
50368;BME280;36281;34.132;-118.018;2023-08-06T09:25:23;99757.91;;;21.31;81.85
50368;BME280;36281;34.132;-118.018;2023-08-06T09:27:53;99762.81;;;21.24;82.16
50368;BME280;36281;34.132;-118.018;2023-08-06T09:30:33;99755.84;;;21.17;82.81
50368;BME280;36281;34.132;-118.018;2023-08-06T09:33:03;99752.94;;;21.14;82.71
50368;BME280;36281;34.132;-118.018;2023-08-06T09:35:38;99753.25;;;21.07;82.87
50368;BME280;36281;34.132;-118.018;2023-08-06T09:38:08;99756.22;;;21.06;83.29
50368;BME280;36281;34.132;-118.018;2023-08-06T09:40:39;99757.31;;;21.05;83.32
50368;BME280;36281;34.132;-118.018;2023-08-06T09:43:08;99754.09;;;21.03;83.80
50368;BME280;36281;34.132;-118.018;2023-08-06T09:45:39;99751.19;;;20.99;84.42
50368;BME280;36281;34.132;-118.018;2023-08-06T09:48:09;99734.03;;;20.90;84.25
50368;BME280;36281;34.132;-118.018;2023-08-06T09:50:38;99750.66;;;20.97;84.07
50368;BME280;36281;34.132;-118.018;2023-08-06T09:53:08;99768.94;;;21.00;83.79
50368;BME280;36281;34.132;-118.018;2023-08-06T09:55:37;99759.31;;;20.94;83.85
50368;BME280;36281;34.132;-118.018;2023-08-06T09:58:06;99760.38;;;20.93;83.81
50368;BME280;36281;34.132;-118.018;2023-08-06T10:00:36;99766.34;;;20.90;83.98
50368;BME280;36281;34.132;-118.018;2023-08-06T10:03:10;99766.38;;;20.85;84.18
50368;BME280;36281;34.132;-118.018;2023-08-06T10:05:39;99760.00;;;20.76;84.40
50368;BME280;36281;34.132;-118.018;2023-08-06T10:08:09;99762.13;;;20.79;84.65
50368;BME280;36281;34.132;-118.018;2023-08-06T10:10:38;99769.38;;;20.78;84.40
50368;BME280;36281;34.132;-118.018;2023-08-06T10:13:08;99768.63;;;20.73;84.82
50368;BME280;36281;34.132;-118.018;2023-08-06T10:15:38;99774.84;;;20.68;85.37
50368;BME280;36281;34.132;-118.018;2023-08-06T10:18:09;99763.34;;;20.57;86.45
50368;BME280;36281;34.132;-118.018;2023-08-06T10:20:40;99770.88;;;20.60;86.70
50368;BME280;36281;34.132;-118.018;2023-08-06T10:23:09;99770.59;;;20.62;86.67
50368;BME280;36281;34.132;-118.018;2023-08-06T10:25:41;99769.50;;;20.63;86.63
50368;BME280;36281;34.132;-118.018;2023-08-06T10:28:11;99749.13;;;20.52;86.84
50368;BME280;36281;34.132;-118.018;2023-08-06T10:30:47;99772.50;;;20.56;87.01
50368;BME280;36281;34.132;-118.018;2023-08-06T10:33:19;99768.22;;;20.55;87.09
50368;BME280;36281;34.132;-118.018;2023-08-06T10:35:50;99756.06;;;20.58;86.75
50368;BME280;36281;34.132;-118.018;2023-08-06T10:38:25;99766.59;;;20.59;86.37
50368;BME280;36281;34.132;-118.018;2023-08-06T10:41:02;99762.00;;;20.60;86.00
50368;BME280;36281;34.132;-118.018;2023-08-06T10:43:33;99766.63;;;20.54;86.01
50368;BME280;36281;34.132;-118.018;2023-08-06T10:46:03;99767.16;;;20.46;86.93
50368;BME280;36281;34.132;-118.018;2023-08-06T10:48:37;99766.91;;;20.48;86.99
50368;BME280;36281;34.132;-118.018;2023-08-06T10:51:08;99759.69;;;20.38;86.49
50368;BME280;36281;34.132;-118.018;2023-08-06T10:53:38;99768.06;;;20.31;86.34
50368;BME280;36281;34.132;-118.018;2023-08-06T10:56:13;99759.50;;;20.24;87.52
50368;BME280;36281;34.132;-118.018;2023-08-06T10:58:43;99774.81;;;20.24;87.79
50368;BME280;36281;34.132;-118.018;2023-08-06T11:01:13;99770.28;;;20.24;87.71
50368;BME280;36281;34.132;-118.018;2023-08-06T11:03:44;99777.50;;;20.24;87.15
50368;BME280;36281;34.132;-118.018;2023-08-06T11:06:17;99768.13;;;20.21;87.18
50368;BME280;36281;34.132;-118.018;2023-08-06T11:08:50;99765.69;;;20.25;87.20
50368;BME280;36281;34.132;-118.018;2023-08-06T11:11:20;99770.00;;;20.26;87.38
50368;BME280;36281;34.132;-118.018;2023-08-06T11:13:50;99778.34;;;20.24;87.15
50368;BME280;36281;34.132;-118.018;2023-08-06T11:16:22;99768.63;;;20.23;87.04
50368;BME280;36281;34.132;-118.018;2023-08-06T11:18:56;99775.41;;;20.21;86.79
50368;BME280;36281;34.132;-118.018;2023-08-06T11:21:28;99777.56;;;20.13;87.06
50368;BME280;36281;34.132;-118.018;2023-08-06T11:23:57;99776.28;;;20.06;86.91
50368;BME280;36281;34.132;-118.018;2023-08-06T11:26:26;99779.78;;;20.01;87.35
50368;BME280;36281;34.132;-118.018;2023-08-06T11:28:58;99777.13;;;19.96;87.45
50368;BME280;36281;34.132;-118.018;2023-08-06T11:31:27;99789.22;;;19.94;87.39
50368;BME280;36281;34.132;-118.018;2023-08-06T11:33:57;99777.41;;;19.95;87.80
50368;BME280;36281;34.132;-118.018;2023-08-06T11:36:30;99777.66;;;19.93;87.32
50368;BME280;36281;34.132;-118.018;2023-08-06T11:38:59;99772.06;;;19.90;87.24
50368;BME280;36281;34.132;-118.018;2023-08-06T11:41:29;99785.22;;;19.91;87.08
50368;BME280;36281;34.132;-118.018;2023-08-06T11:43:59;99780.94;;;19.85;87.03
50368;BME280;36281;34.132;-118.018;2023-08-06T11:46:28;99787.38;;;19.79;87.01
50368;BME280;36281;34.132;-118.018;2023-08-06T11:48:59;99796.56;;;19.73;87.65
50368;BME280;36281;34.132;-118.018;2023-08-06T11:51:28;99795.22;;;19.70;88.50
50368;BME280;36281;34.132;-118.018;2023-08-06T11:53:57;99800.34;;;19.67;88.13
50368;BME280;36281;34.132;-118.018;2023-08-06T11:56:29;99801.66;;;19.59;88.70
50368;BME280;36281;34.132;-118.018;2023-08-06T11:58:58;99795.25;;;19.55;88.90
50368;BME280;36281;34.132;-118.018;2023-08-06T12:01:27;99804.63;;;19.57;89.26
50368;BME280;36281;34.132;-118.018;2023-08-06T12:04:00;99812.41;;;19.59;89.18
50368;BME280;36281;34.132;-118.018;2023-08-06T12:06:30;99813.25;;;19.59;89.39
50368;BME280;36281;34.132;-118.018;2023-08-06T12:08:58;99815.09;;;19.59;89.21
50368;BME280;36281;34.132;-118.018;2023-08-06T12:11:27;99823.44;;;19.62;88.98
50368;BME280;36281;34.132;-118.018;2023-08-06T12:13:56;99817.56;;;19.60;89.03
50368;BME280;36281;34.132;-118.018;2023-08-06T12:16:26;99821.84;;;19.61;88.92
50368;BME280;36281;34.132;-118.018;2023-08-06T12:18:55;99822.13;;;19.60;88.54
50368;BME280;36281;34.132;-118.018;2023-08-06T12:21:25;99824.22;;;19.58;88.26
50368;BME280;36281;34.132;-118.018;2023-08-06T12:23:54;99824.78;;;19.55;88.57
50368;BME280;36281;34.132;-118.018;2023-08-06T12:26:23;99820.75;;;19.52;88.47
50368;BME280;36281;34.132;-118.018;2023-08-06T12:28:52;99828.28;;;19.50;88.58
50368;BME280;36281;34.132;-118.018;2023-08-06T12:31:23;99834.19;;;19.47;89.07
50368;BME280;36281;34.132;-118.018;2023-08-06T12:33:52;99831.50;;;19.42;89.23
50368;BME280;36281;34.132;-118.018;2023-08-06T12:36:21;99827.75;;;19.38;89.37
50368;BME280;36281;34.132;-118.018;2023-08-06T12:38:52;99836.63;;;19.33;89.67
50368;BME280;36281;34.132;-118.018;2023-08-06T12:41:21;99837.44;;;19.29;89.92
50368;BME280;36281;34.132;-118.018;2023-08-06T12:43:50;99832.88;;;19.19;90.06